createdAt,value
2019-04-27T00:00:32.858Z,99870.31
2019-04-27T00:03:02.352Z,99866.17
2019-04-27T00:05:48.142Z,99871.91
2019-04-27T00:08:21.165Z,99873.25
2019-04-27T00:10:51.219Z,99869.16
2019-04-27T00:13:19.642Z,99875.70
2019-04-27T00:15:49.664Z,99877.34
2019-04-27T00:18:19.730Z,99878.16
2019-04-27T00:20:55.668Z,99878.98
2019-04-27T00:23:25.827Z,99868.91
2019-04-27T00:25:54.207Z,99869.41
2019-04-27T00:28:23.070Z,99860.65
2019-04-27T00:30:53.132Z,99865.06
2019-04-27T00:33:23.422Z,99864.03
2019-04-27T00:35:53.872Z,99864.68
2019-04-27T00:38:24.199Z,99860.39
2019-04-27T00:40:54.306Z,99862.66
2019-04-27T00:43:22.998Z,99862.51
2019-04-27T00:45:53.654Z,99860.70
2019-04-27T00:48:23.382Z,99851.33
2019-04-27T00:50:52.897Z,99849.64
2019-04-27T00:53:21.476Z,99851.94
2019-04-27T00:55:51.669Z,99847.50
2019-04-27T00:58:23.099Z,99852.62
2019-04-27T01:00:54.010Z,99850.81
2019-04-27T01:03:24.382Z,99842.08
2019-04-27T01:05:53.194Z,99837.64
2019-04-27T01:08:22.949Z,99836.02
2019-04-27T01:10:51.419Z,99846.55
2019-04-27T01:13:20.049Z,99843.89
2019-04-27T01:15:48.469Z,99831.86
2019-04-27T01:18:17.039Z,99821.94
2019-04-27T01:20:45.451Z,99829.50
2019-04-27T01:23:14.050Z,99823.74
2019-04-27T01:26:00.542Z,99820.89
2019-04-27T01:28:30.661Z,99812.02
2019-04-27T01:31:00.774Z,99815.27
2019-04-27T01:33:30.288Z,99813.12
2019-04-27T01:35:58.997Z,99814.25
2019-04-27T01:38:28.989Z,99814.40
2019-04-27T01:40:58.356Z,99818.28
2019-04-27T01:43:28.539Z,99805.61
2019-04-27T01:45:58.704Z,99802.97
2019-04-27T01:48:30.608Z,99799.78
2019-04-27T01:50:59.419Z,99803.34
2019-04-27T01:53:28.570Z,99795.83
2019-04-27T01:55:59.169Z,99797.56
2019-04-27T01:58:29.287Z,99799.35
2019-04-27T02:00:59.751Z,99796.50
2019-04-27T02:03:38.798Z,99802.73
2019-04-27T02:06:07.225Z,99774.41
2019-04-27T02:08:35.690Z,99807.80
2019-04-27T02:11:04.171Z,99808.55
2019-04-27T02:13:32.637Z,99796.70
2019-04-27T02:16:01.066Z,99800.12
2019-04-27T02:18:37.498Z,99803.72
2019-04-27T02:20:59.870Z,99801.03
2019-04-27T02:23:29.366Z,99803.66
2019-04-27T02:25:58.612Z,99799.05
2019-04-27T02:28:39.358Z,99803.47
2019-04-27T02:31:25.908Z,99800.11
2019-04-27T02:33:55.943Z,99804.35
2019-04-27T02:36:24.353Z,99802.87
2019-04-27T02:38:52.747Z,99804.83
2019-04-27T02:41:21.284Z,99799.91
2019-04-27T02:43:51.313Z,99802.53
2019-04-27T02:46:20.164Z,99797.95
2019-04-27T02:48:58.730Z,99801.85
2019-04-27T02:51:20.500Z,99798.69
2019-04-27T02:53:56.124Z,99803.31
2019-04-27T02:56:24.879Z,99800.16
2019-04-27T02:58:53.347Z,99798.98
2019-04-27T03:01:24.457Z,99805.39
2019-04-27T03:03:52.916Z,99798.62
2019-04-27T03:06:21.481Z,99795.85
2019-04-27T03:08:53.923Z,99802.08
2019-04-27T03:11:23.343Z,99803.83
2019-04-27T03:13:59.828Z,99802.42
2019-04-27T03:16:35.531Z,99798.77
2019-04-27T03:19:22.142Z,99797.73
2019-04-27T03:21:55.036Z,99800.72
2019-04-27T03:24:25.098Z,99791.74
2019-04-27T03:26:55.197Z,99786.97
2019-04-27T03:29:23.993Z,99783.03
2019-04-27T03:31:53.899Z,99787.53
2019-04-27T03:34:22.813Z,99787.94
2019-04-27T03:36:52.624Z,99790.56
2019-04-27T03:39:21.056Z,99787.75
2019-04-27T03:41:52.414Z,99776.98
2019-04-27T03:44:19.853Z,99783.70
2019-04-27T03:46:49.652Z,99785.70
2019-04-27T03:49:31.877Z,99786.33
2019-04-27T03:52:09.613Z,99782.92
2019-04-27T03:54:50.364Z,99789.55
2019-04-27T03:57:20.597Z,99786.03
2019-04-27T03:59:59.864Z,99783.12
2019-04-27T04:02:30.156Z,99782.22
2019-04-27T04:04:59.880Z,99779.96
2019-04-27T04:07:30.126Z,99789.49
2019-04-27T04:10:00.316Z,99783.12
2019-04-27T04:12:30.827Z,99789.41
2019-04-27T04:15:00.020Z,99784.73
2019-04-27T04:17:30.788Z,99784.84
2019-04-27T04:20:01.699Z,99780.56
2019-04-27T04:22:30.606Z,99779.87
2019-04-27T04:24:59.929Z,99785.04
2019-04-27T04:27:29.866Z,99788.98
2019-04-27T04:29:59.462Z,99787.47
2019-04-27T04:32:29.807Z,99783.88
2019-04-27T04:35:21.297Z,99779.25
2019-04-27T04:37:52.730Z,99782.42
2019-04-27T04:40:23.255Z,99785.53
2019-04-27T04:42:53.463Z,99778.83
2019-04-27T04:45:23.789Z,99779.67
2019-04-27T04:47:53.893Z,99777.25
2019-04-27T04:50:22.759Z,99770.00
2019-04-27T04:52:51.285Z,99771.08
2019-04-27T04:55:20.451Z,99779.37
2019-04-27T04:57:49.466Z,99769.14
2019-04-27T05:03:34.881Z,99774.13
2019-04-27T05:06:03.351Z,99775.71
2019-04-27T05:08:31.831Z,99772.47
2019-04-27T05:11:00.249Z,99773.79
2019-04-27T05:13:29.308Z,99773.48
2019-04-27T05:15:58.917Z,99778.55
2019-04-27T05:18:29.124Z,99783.86
2019-04-27T05:20:59.369Z,99778.19
2019-04-27T05:23:28.742Z,99779.70
2019-04-27T05:25:59.164Z,99783.88
2019-04-27T05:28:27.423Z,99782.77
2019-04-27T05:30:55.997Z,99786.23
2019-04-27T05:33:24.396Z,99783.30
2019-04-27T05:35:52.815Z,99785.12
2019-04-27T05:38:21.373Z,99787.70
2019-04-27T05:40:50.088Z,99789.17
2019-04-27T05:43:20.366Z,99786.97
2019-04-27T05:45:57.698Z,99784.69
2019-04-27T05:48:33.508Z,99782.20
2019-04-27T05:51:02.177Z,99770.94
2019-04-27T05:53:30.566Z,99765.19
2019-04-27T05:55:59.466Z,99769.14
2019-04-27T05:58:28.954Z,99768.64
2019-04-27T06:00:59.518Z,99765.66
2019-04-27T06:03:29.692Z,99773.84
2019-04-27T06:06:01.414Z,99764.17
2019-04-27T06:08:29.454Z,99761.77
2019-04-27T06:10:59.213Z,99762.02
2019-04-27T06:13:30.742Z,99754.72
2019-04-27T06:15:59.241Z,99761.17
2019-04-27T06:18:29.401Z,99749.11
2019-04-27T06:20:59.699Z,99739.19
2019-04-27T06:23:28.932Z,99739.19
2019-04-27T06:25:57.558Z,99736.97
2019-04-27T06:28:26.146Z,99741.87
2019-04-27T06:30:54.558Z,99740.66
2019-04-27T06:33:31.961Z,99737.60
2019-04-27T06:35:53.121Z,99737.13
2019-04-27T06:38:21.518Z,99735.91
2019-04-27T06:40:50.207Z,99737.00
2019-04-27T06:43:18.975Z,99739.72
2019-04-27T06:45:48.790Z,99740.88
2019-04-27T06:48:19.301Z,99740.20
2019-04-27T06:50:49.005Z,99738.64
2019-04-27T06:53:19.174Z,99738.38
2019-04-27T06:55:49.658Z,99741.87
2019-04-27T06:58:20.043Z,99745.48
2019-04-27T07:00:49.713Z,99739.76
2019-04-27T07:03:18.912Z,99737.70
2019-04-27T07:05:48.719Z,99746.17
2019-04-27T07:08:18.646Z,99736.66
2019-04-27T07:10:49.010Z,99743.41
2019-04-27T07:13:17.277Z,99731.63
2019-04-27T07:15:45.819Z,99726.71
2019-04-27T07:18:14.292Z,99725.64
2019-04-27T07:20:42.765Z,99728.36
2019-04-27T07:23:11.301Z,99738.62
2019-04-27T07:25:39.703Z,99723.72
2019-04-27T07:28:09.194Z,99731.90
2019-04-27T07:30:38.793Z,99727.78
2019-04-27T07:33:08.722Z,99732.88
2019-04-27T07:35:39.175Z,99723.69
2019-04-27T07:38:07.411Z,99732.20
2019-04-27T07:40:36.060Z,99728.72
2019-04-27T07:43:06.114Z,99734.87
2019-04-27T07:45:39.565Z,99731.37
2019-04-27T07:48:09.165Z,99736.01
2019-04-27T07:50:39.052Z,99732.81
2019-04-27T07:53:08.655Z,99727.28
2019-04-27T07:55:37.127Z,99733.14
2019-04-27T07:58:05.513Z,99732.42
2019-04-27T08:00:33.933Z,99726.80
2019-04-27T08:03:02.331Z,99728.30
2019-04-27T08:05:30.755Z,99729.53
2019-04-27T08:08:00.177Z,99729.37
2019-04-27T08:10:29.296Z,99727.55
2019-04-27T08:12:59.585Z,99723.47
2019-04-27T08:15:29.094Z,99718.48
2019-04-27T08:17:59.202Z,99723.92
2019-04-27T08:20:29.387Z,99726.78
2019-04-27T08:22:59.851Z,99730.55
2019-04-27T08:25:28.698Z,99715.59
2019-04-27T08:28:00.345Z,99724.22
2019-04-27T08:30:33.261Z,99722.46
2019-04-27T08:33:03.447Z,99724.41
2019-04-27T08:35:32.803Z,99724.24
2019-04-27T08:38:01.281Z,99720.67
2019-04-27T08:40:29.665Z,99719.23
2019-04-27T08:42:59.177Z,99722.01
2019-04-27T08:45:29.299Z,99718.14
2019-04-27T08:47:59.510Z,99723.89
2019-04-27T08:50:28.696Z,99718.33
2019-04-27T08:52:57.178Z,99723.86
2019-04-27T08:55:25.583Z,99719.61
2019-04-27T08:57:54.016Z,99717.76
2019-04-27T09:00:22.662Z,99725.68
2019-04-27T09:02:51.071Z,99725.24
2019-04-27T09:05:21.287Z,99712.76
2019-04-27T09:07:51.421Z,99716.19
2019-04-27T09:10:21.901Z,99705.73
2019-04-27T09:13:08.867Z,99706.31
2019-04-27T09:15:41.850Z,99708.97
2019-04-27T09:18:11.535Z,99708.27
2019-04-27T09:20:41.575Z,99708.16
2019-04-27T09:23:10.020Z,99703.03
2019-04-27T09:25:39.615Z,99705.86
2019-04-27T09:28:08.747Z,99699.54
2019-04-27T09:30:39.140Z,99708.34
2019-04-27T09:33:07.942Z,99699.16
2019-04-27T09:35:36.420Z,99704.73
2019-04-27T09:38:06.948Z,99702.58
2019-04-27T09:40:36.076Z,99702.77
2019-04-27T09:43:04.593Z,99703.55
2019-04-27T09:45:33.166Z,99697.90
2019-04-27T09:48:01.577Z,99691.95
2019-04-27T09:50:30.063Z,99683.83
2019-04-27T09:52:58.460Z,99681.23
2019-04-27T09:55:26.936Z,99678.27
2019-04-27T09:57:56.899Z,99677.16
2019-04-27T10:00:27.600Z,99671.70
2019-04-27T10:02:56.407Z,99672.92
2019-04-27T10:05:26.376Z,99668.41
2019-04-27T10:07:56.757Z,99665.95
2019-04-27T10:10:26.738Z,99659.39
2019-04-27T10:12:56.775Z,99664.98
2019-04-27T10:15:26.669Z,99671.70
2019-04-27T10:17:55.975Z,99678.52
2019-04-27T10:20:25.381Z,99670.81
2019-04-27T10:22:53.873Z,99668.22
2019-04-27T10:25:23.991Z,99670.05
2019-04-27T10:27:58.199Z,99662.97
2019-04-27T10:30:27.116Z,99663.59
2019-04-27T10:32:55.665Z,99666.94
2019-04-27T10:35:25.934Z,99658.31
2019-04-27T10:37:54.481Z,99658.83
2019-04-27T10:40:22.956Z,99656.48
2019-04-27T10:42:51.357Z,99651.09
2019-04-27T10:45:19.933Z,99651.94
2019-04-27T10:47:49.628Z,99662.59
2019-04-27T10:50:18.556Z,99657.06
2019-04-27T10:52:53.215Z,99648.14
2019-04-27T10:55:17.361Z,99654.03
2019-04-27T10:57:45.754Z,99650.45
2019-04-27T11:00:18.389Z,99662.20
2019-04-27T11:02:46.792Z,99652.66
2019-04-27T11:05:20.173Z,99648.47
2019-04-27T11:07:48.914Z,99647.12
2019-04-27T11:10:17.470Z,99654.70
2019-04-27T11:12:45.912Z,99645.58
2019-04-27T11:15:16.401Z,99637.06
2019-04-27T11:17:47.252Z,99643.51
2019-04-27T11:20:15.599Z,99640.75
2019-04-27T11:22:44.079Z,99636.23
2019-04-27T11:25:13.239Z,99642.36
2019-04-27T11:27:41.612Z,99633.45
2019-04-27T11:30:11.208Z,99639.12
2019-04-27T11:32:39.912Z,99636.28
2019-04-27T11:35:10.421Z,99633.48
2019-04-27T11:37:38.900Z,99624.90
2019-04-27T11:40:10.554Z,99623.73
2019-04-27T11:42:38.951Z,99616.56
2019-04-27T11:45:10.404Z,99609.56
2019-04-27T11:47:38.821Z,99604.73
2019-04-27T11:50:08.253Z,99603.82
2019-04-27T11:52:37.180Z,99609.09
2019-04-27T11:55:07.449Z,99606.26
2019-04-27T11:57:37.690Z,99601.38
2019-04-27T12:00:12.658Z,99614.44
2019-04-27T12:02:41.288Z,99608.00
2019-04-27T12:05:10.225Z,99608.70
2019-04-27T12:07:38.840Z,99616.76
2019-04-27T12:10:08.027Z,99605.67
2019-04-27T12:12:36.458Z,99608.72
2019-04-27T12:15:07.378Z,99611.77
2019-04-27T12:17:35.995Z,99621.45
2019-04-27T12:20:06.937Z,99617.73
2019-04-27T12:22:35.369Z,99606.16
2019-04-27T12:25:06.525Z,99601.67
2019-04-27T12:27:36.948Z,99599.99
2019-04-27T12:30:19.072Z,99589.37
2019-04-27T12:32:47.559Z,99587.61
2019-04-27T12:35:16.713Z,99589.50
2019-04-27T12:37:45.759Z,99591.32
2019-04-27T12:40:16.555Z,99584.81
2019-04-27T12:42:44.857Z,99581.53
2019-04-27T12:45:13.955Z,99575.16
2019-04-27T12:47:46.492Z,99567.34
2019-04-27T12:50:17.234Z,99547.89
2019-04-27T12:52:47.403Z,99541.88
2019-04-27T12:55:33.805Z,99545.83
2019-04-27T12:58:03.942Z,99546.34
2019-04-27T13:00:42.988Z,99530.91
2019-04-27T13:03:11.473Z,99530.25
2019-04-27T13:05:39.858Z,99530.81
2019-04-27T13:08:08.289Z,99535.31
2019-04-27T13:10:36.764Z,99533.91
2019-04-27T13:13:06.300Z,99530.08
2019-04-27T13:15:35.676Z,99515.56
2019-04-27T13:18:05.575Z,99515.97
2019-04-27T13:20:35.914Z,99499.45
2019-04-27T13:23:04.511Z,99509.27
2019-04-27T13:25:32.994Z,99499.48
2019-04-27T13:28:01.583Z,99502.03
2019-04-27T13:30:30.081Z,99487.64
2019-04-27T13:32:58.469Z,99491.00
2019-04-27T13:35:26.885Z,99485.45
2019-04-27T13:37:55.992Z,99497.10
2019-04-27T13:40:25.922Z,99493.28
2019-04-27T13:43:04.865Z,99494.88
2019-04-27T13:45:40.639Z,99490.27
2019-04-27T13:48:10.720Z,99490.28
2019-04-27T13:50:40.766Z,99474.45
2019-04-27T13:53:09.163Z,99473.23
2019-04-27T13:55:37.569Z,99469.35
2019-04-27T13:58:06.121Z,99477.95
2019-04-27T14:00:37.628Z,99476.82
2019-04-27T14:03:05.174Z,99482.14
2019-04-27T14:05:33.591Z,99480.20
2019-04-27T14:08:01.992Z,99489.08
2019-04-27T14:10:30.402Z,99500.70
2019-04-27T14:12:59.179Z,99537.05
2019-04-27T14:15:28.906Z,99562.50
2019-04-27T14:17:59.079Z,99589.56
2019-04-27T14:20:28.773Z,99629.80
2019-04-27T14:23:03.337Z,99640.50
2019-04-27T14:25:28.984Z,99640.50
2019-04-27T14:27:58.405Z,99633.66
2019-04-27T14:30:27.010Z,99624.08
2019-04-27T14:32:55.420Z,99605.01
2019-04-27T14:35:23.858Z,99620.83
2019-04-27T14:37:52.255Z,99629.52
2019-04-27T14:40:20.671Z,99623.05
2019-04-27T14:42:50.582Z,99627.11
2019-04-27T14:45:19.257Z,99603.48
2019-04-27T14:47:48.193Z,99621.81
2019-04-27T14:50:18.342Z,99636.84
2019-04-27T14:52:48.556Z,99636.84
2019-04-27T14:55:17.127Z,99635.34
2019-04-27T14:57:45.539Z,99634.05
2019-04-27T15:00:16.515Z,99638.71
2019-04-27T15:02:44.910Z,99635.84
2019-04-27T15:05:13.541Z,99627.63
2019-04-27T15:07:41.956Z,99627.53
2019-04-27T15:10:11.468Z,99627.53
2019-04-27T15:12:39.881Z,99622.58
2019-04-27T15:15:08.814Z,99622.58
2019-04-27T15:17:37.313Z,99604.14
2019-04-27T15:20:08.794Z,99584.35
2019-04-27T15:22:38.187Z,99591.26
2019-04-27T15:25:12.919Z,99600.66
2019-04-27T15:27:42.023Z,99596.87
2019-04-27T15:30:11.893Z,99596.75
2019-04-27T15:32:54.008Z,99607.13
2019-04-27T15:35:30.013Z,99596.28
2019-04-27T15:38:05.016Z,99593.19
2019-04-27T15:40:54.440Z,99591.74
2019-04-27T15:43:27.238Z,99589.54
2019-04-27T15:45:57.676Z,99583.21
2019-04-27T15:48:30.442Z,99582.05
2019-04-27T15:51:02.755Z,99572.09
2019-04-27T15:53:28.402Z,99568.07
2019-04-27T15:56:00.096Z,99567.58
2019-04-27T15:58:28.400Z,99561.91
2019-04-27T16:01:02.391Z,99556.08
2019-04-27T16:03:31.255Z,99561.28
2019-04-27T16:05:58.843Z,99563.41
2019-04-27T16:08:28.836Z,99571.81
2019-04-27T16:10:58.795Z,99582.27
2019-04-27T16:13:32.964Z,99576.39
2019-04-27T16:15:58.439Z,99584.03
2019-04-27T16:18:29.237Z,99579.25
2019-04-27T16:20:58.580Z,99582.34
2019-04-27T16:23:28.184Z,99597.95
2019-04-27T16:25:58.189Z,99563.89
2019-04-27T16:28:27.471Z,99614.69
2019-04-27T16:30:55.951Z,99609.78
2019-04-27T16:33:24.390Z,99606.88
2019-04-27T16:35:57.661Z,99621.00
2019-04-27T16:38:38.799Z,99619.88
2019-04-27T16:41:08.162Z,99628.79
2019-04-27T16:43:38.546Z,99626.27
2019-04-27T16:46:08.776Z,99640.81
2019-04-27T16:48:39.003Z,99633.55
2019-04-27T16:51:08.725Z,99637.14
2019-04-27T16:53:40.992Z,99641.63
2019-04-27T16:56:14.342Z,99641.63
2019-04-27T16:58:39.397Z,99642.09
2019-04-27T17:01:11.986Z,99642.09
2019-04-27T17:03:41.382Z,99653.36
2019-04-27T17:06:09.995Z,99671.23
2019-04-27T17:08:39.366Z,99733.30
2019-04-27T17:11:12.942Z,99733.30
2019-04-27T17:13:39.752Z,99744.51
2019-04-27T17:16:33.775Z,99742.05
2019-04-27T17:19:04.959Z,99746.28
2019-04-27T17:21:33.274Z,99745.00
2019-04-27T17:24:02.986Z,99765.31
2019-04-27T17:26:35.497Z,99765.34
2019-04-27T17:29:03.940Z,99783.15
2019-04-27T17:31:34.053Z,99773.58
2019-04-27T17:34:02.551Z,99760.25
2019-04-27T17:36:31.114Z,99748.86
2019-04-27T17:38:59.502Z,99741.45
2019-04-27T17:41:28.379Z,99743.89
2019-04-27T17:43:58.968Z,99725.23
2019-04-27T17:46:28.163Z,99731.83
2019-04-27T17:48:58.587Z,99747.33
2019-04-27T17:51:28.571Z,99754.12
2019-04-27T17:53:58.630Z,99756.43
2019-04-27T17:56:34.055Z,99739.46
2019-04-27T17:58:58.609Z,99739.63
2019-04-27T18:01:30.050Z,99737.81
2019-04-27T18:04:00.056Z,99737.97
2019-04-27T18:06:29.566Z,99739.47
2019-04-27T18:09:00.751Z,99739.63
2019-04-27T18:11:28.765Z,99741.93
2019-04-27T18:14:00.488Z,99736.68
2019-04-27T18:16:30.441Z,99735.03
2019-04-27T18:19:18.403Z,99745.74
2019-04-27T18:22:03.885Z,99744.58
2019-04-27T18:24:43.105Z,99742.27
2019-04-27T18:27:13.233Z,99746.56
2019-04-27T18:29:41.631Z,99750.19
2019-04-27T18:32:10.281Z,99750.68
2019-04-27T18:34:38.982Z,99744.75
2019-04-27T18:37:07.464Z,99744.92
2019-04-27T18:39:35.876Z,99746.56
2019-04-27T18:42:04.555Z,99740.63
2019-04-27T18:44:32.961Z,99754.66
2019-04-27T18:47:02.420Z,99758.44
2019-04-27T18:49:48.570Z,99768.30
2019-04-27T18:52:35.644Z,99780.17
2019-04-27T18:55:10.898Z,99805.73
2019-04-27T18:57:38.673Z,99842.15
2019-04-27T19:00:07.990Z,99857.14
2019-04-27T19:02:36.420Z,99858.45
2019-04-27T19:05:06.490Z,99869.81
2019-04-27T19:07:34.972Z,99871.95
2019-04-27T19:10:04.736Z,99877.07
2019-04-27T19:12:33.210Z,99872.47
2019-04-27T19:15:01.695Z,99883.04
2019-04-27T19:17:30.131Z,99882.05
2019-04-27T19:19:58.516Z,99878.44
2019-04-27T19:22:27.991Z,99881.88
2019-04-27T19:24:57.030Z,99889.80
2019-04-27T19:27:29.895Z,99888.98
2019-04-27T19:30:03.373Z,99886.34
2019-04-27T19:32:31.826Z,99895.91
2019-04-27T19:35:00.321Z,99895.22
2019-04-27T19:37:28.747Z,99891.63
2019-04-27T19:39:58.329Z,99891.29
2019-04-27T19:42:28.446Z,99894.59
2019-04-27T19:44:57.033Z,99900.36
2019-04-27T19:47:25.543Z,99904.64
2019-04-27T19:49:53.921Z,99915.05
2019-04-27T19:52:22.785Z,99914.20
2019-04-27T19:54:51.211Z,99912.55
2019-04-27T19:57:32.711Z,99920.63
2019-04-27T19:59:51.389Z,99918.33
2019-04-27T20:03:50.907Z,99916.20
2019-04-27T20:06:19.338Z,99925.91
2019-04-27T20:08:49.367Z,99926.90
2019-04-27T20:11:17.809Z,99933.16
2019-04-27T20:13:46.219Z,99933.84
2019-04-27T20:16:14.630Z,99925.92
2019-04-27T20:18:43.364Z,99938.30
2019-04-27T20:21:12.410Z,99944.91
2019-04-27T20:23:40.917Z,99941.75
2019-04-27T20:26:09.374Z,99951.17
2019-04-27T20:28:38.630Z,99955.45
2019-04-27T20:31:07.564Z,99957.75
2019-04-27T20:33:35.970Z,99959.25
2019-04-27T20:36:04.620Z,99975.90
2019-04-27T20:38:33.005Z,99976.34
2019-04-27T20:41:01.473Z,99979.34
2019-04-27T20:43:31.457Z,99986.58
2019-04-27T20:46:00.861Z,99988.56
2019-04-27T20:48:31.165Z,99992.83
2019-04-27T20:51:01.280Z,99982.92
2019-04-27T20:53:31.526Z,99997.45
2019-04-27T20:55:59.916Z,99997.63
2019-04-27T20:58:28.294Z,100000.89
2019-04-27T21:00:56.703Z,99998.56
2019-04-27T21:03:26.738Z,100005.31
2019-04-27T21:05:56.759Z,100009.55
2019-04-27T21:08:26.822Z,100005.26
2019-04-27T21:10:55.206Z,100012.37
2019-04-27T21:13:23.599Z,100008.26
2019-04-27T21:15:51.991Z,100003.60
2019-04-27T21:18:21.689Z,100009.21
2019-04-27T21:20:51.165Z,100007.92
2019-04-27T21:23:21.033Z,100011.70
2019-04-27T21:25:51.272Z,100013.22
2019-04-27T21:28:19.809Z,100017.00
2019-04-27T21:30:48.211Z,100022.05
2019-04-27T21:33:16.699Z,100022.36
2019-04-27T21:35:46.751Z,100028.09
2019-04-27T21:38:15.212Z,100030.91
2019-04-27T21:40:43.620Z,100033.70
2019-04-27T21:43:14.114Z,100039.80
2019-04-27T21:45:42.517Z,100039.61
2019-04-27T21:48:11.160Z,100039.80
2019-04-27T21:50:41.266Z,100039.20
2019-04-27T21:53:31.236Z,100040.33
2019-04-27T21:56:04.491Z,100045.75
2019-04-27T21:58:33.396Z,100035.91
2019-04-27T22:01:11.595Z,100038.03
2019-04-27T22:03:40.077Z,100039.98
2019-04-27T22:06:08.551Z,100037.23
2019-04-27T22:08:36.984Z,100038.64
2019-04-27T22:11:05.443Z,100041.76
2019-04-27T22:13:33.948Z,100043.00
2019-04-27T22:16:02.386Z,100042.52
2019-04-27T22:18:31.485Z,100038.41
2019-04-27T22:21:01.321Z,100035.13
2019-04-27T22:23:46.113Z,100043.72
2019-04-27T22:26:14.498Z,100044.92
2019-04-27T22:28:47.228Z,100047.94
2019-04-27T22:31:13.235Z,100049.92
2019-04-27T22:33:42.998Z,100002.45
2019-04-27T22:36:11.533Z,100039.73
2019-04-27T22:38:41.281Z,100051.89
2019-04-27T22:41:22.925Z,100051.73
2019-04-27T22:43:55.679Z,100056.81
2019-04-27T22:46:25.710Z,100053.20
2019-04-27T22:48:54.096Z,100050.68
2019-04-27T22:51:22.483Z,100057.16
2019-04-27T22:53:51.302Z,100055.98
2019-04-27T22:56:22.305Z,100048.67
2019-04-27T22:59:08.824Z,100053.45
2019-04-27T23:01:51.349Z,100046.53
2019-04-27T23:04:21.408Z,100045.94
2019-04-27T23:06:49.794Z,100044.95
2019-04-27T23:09:18.199Z,100038.97
2019-04-27T23:11:46.589Z,100039.12
2019-04-27T23:14:15.133Z,100037.31
2019-04-27T23:16:45.290Z,100040.92
2019-04-27T23:19:13.714Z,100042.09
2019-04-27T23:21:42.098Z,100049.17
2019-04-27T23:24:10.639Z,100044.20
2019-04-27T23:26:39.028Z,100048.45
2019-04-27T23:29:13.691Z,100043.91
2019-04-27T23:31:41.879Z,100050.83
2019-04-27T23:34:11.755Z,100050.97
2019-04-27T23:36:42.307Z,100048.48
2019-04-27T23:39:11.861Z,100054.40
2019-04-27T23:41:40.457Z,100059.27
2019-04-27T23:44:08.866Z,100058.25
2019-04-27T23:46:37.268Z,100056.83
2019-04-27T23:49:05.748Z,100045.47
2019-04-27T23:51:35.780Z,100007.68
2019-04-27T23:54:04.306Z,100061.13
2019-04-27T23:56:32.771Z,100056.34
2019-04-27T23:59:01.160Z,100050.89
